sensor_id;sensor_type;location;lat;lon;timestamp;temperature;humidity
43810;DHT22;29440;48.208;11.162;2022-12-18T00:01:32;-4.00;99.90
43810;DHT22;29440;48.208;11.162;2022-12-18T00:04:00;-4.00;99.90
43810;DHT22;29440;48.208;11.162;2022-12-18T00:06:28;-4.00;99.90
43810;DHT22;29440;48.208;11.162;2022-12-18T00:08:56;-4.00;99.90
43810;DHT22;29440;48.208;11.162;2022-12-18T00:11:24;-4.00;99.90
43810;DHT22;29440;48.208;11.162;2022-12-18T00:13:50;-4.00;99.90
43810;DHT22;29440;48.208;11.162;2022-12-18T00:16:19;-4.00;99.90
43810;DHT22;29440;48.208;11.162;2022-12-18T00:18:52;-4.00;99.90
43810;DHT22;29440;48.208;11.162;2022-12-18T00:21:19;-4.00;99.90
43810;DHT22;29440;48.208;11.162;2022-12-18T00:23:46;-4.00;99.90
43810;DHT22;29440;48.208;11.162;2022-12-18T00:26:15;-4.00;99.90
43810;DHT22;29440;48.208;11.162;2022-12-18T00:28:41;-4.00;99.90
43810;DHT22;29440;48.208;11.162;2022-12-18T00:31:26;-4.00;99.90
43810;DHT22;29440;48.208;11.162;2022-12-18T00:33:54;-4.00;99.90
43810;DHT22;29440;48.208;11.162;2022-12-18T00:36:22;-4.00;99.90
43810;DHT22;29440;48.208;11.162;2022-12-18T00:39:01;-4.00;99.90
43810;DHT22;29440;48.208;11.162;2022-12-18T00:41:27;-4.00;99.90
43810;DHT22;29440;48.208;11.162;2022-12-18T00:44:14;-4.00;99.90
43810;DHT22;29440;48.208;11.162;2022-12-18T00:46:44;-4.00;99.90
43810;DHT22;29440;48.208;11.162;2022-12-18T00:49:10;-4.00;99.90
43810;DHT22;29440;48.208;11.162;2022-12-18T00:51:36;-4.10;99.90
43810;DHT22;29440;48.208;11.162;2022-12-18T00:54:03;-4.10;99.90
43810;DHT22;29440;48.208;11.162;2022-12-18T00:56:28;-4.10;99.90
43810;DHT22;29440;48.208;11.162;2022-12-18T00:58:54;-4.10;99.90
43810;DHT22;29440;48.208;11.162;2022-12-18T01:01:20;-4.10;99.90
43810;DHT22;29440;48.208;11.162;2022-12-18T01:03:45;-4.20;99.90
43810;DHT22;29440;48.208;11.162;2022-12-18T01:06:14;-4.20;99.90
43810;DHT22;29440;48.208;11.162;2022-12-18T01:08:40;-4.20;99.90
43810;DHT22;29440;48.208;11.162;2022-12-18T01:11:11;-4.20;99.90
43810;DHT22;29440;48.208;11.162;2022-12-18T01:13:37;-4.30;99.90
43810;DHT22;29440;48.208;11.162;2022-12-18T01:16:03;-4.40;99.90
43810;DHT22;29440;48.208;11.162;2022-12-18T01:18:29;-4.40;99.90
43810;DHT22;29440;48.208;11.162;2022-12-18T01:20:54;-4.40;99.90
43810;DHT22;29440;48.208;11.162;2022-12-18T01:23:20;-4.50;99.90
43810;DHT22;29440;48.208;11.162;2022-12-18T01:25:46;-4.40;99.90
43810;DHT22;29440;48.208;11.162;2022-12-18T01:28:11;-4.50;99.90
43810;DHT22;29440;48.208;11.162;2022-12-18T01:30:37;-4.40;99.90
43810;DHT22;29440;48.208;11.162;2022-12-18T01:33:06;-4.40;99.90
43810;DHT22;29440;48.208;11.162;2022-12-18T01:35:32;-4.50;99.90
43810;DHT22;29440;48.208;11.162;2022-12-18T01:37:59;-4.60;99.90
43810;DHT22;29440;48.208;11.162;2022-12-18T01:40:25;-4.50;99.90
43810;DHT22;29440;48.208;11.162;2022-12-18T01:42:52;-4.60;99.90
43810;DHT22;29440;48.208;11.162;2022-12-18T01:48:06;-4.50;99.90
43810;DHT22;29440;48.208;11.162;2022-12-18T01:50:37;-4.60;99.90
43810;DHT22;29440;48.208;11.162;2022-12-18T01:53:11;-4.60;99.90
43810;DHT22;29440;48.208;11.162;2022-12-18T01:55:48;-4.60;99.90
43810;DHT22;29440;48.208;11.162;2022-12-18T01:58:15;-4.60;99.90
43810;DHT22;29440;48.208;11.162;2022-12-18T02:00:41;-4.70;99.90
43810;DHT22;29440;48.208;11.162;2022-12-18T02:03:07;-4.70;99.90
43810;DHT22;29440;48.208;11.162;2022-12-18T02:08:26;-4.70;99.90
43810;DHT22;29440;48.208;11.162;2022-12-18T02:10:57;-4.80;99.90
43810;DHT22;29440;48.208;11.162;2022-12-18T02:18:43;-4.80;99.90
43810;DHT22;29440;48.208;11.162;2022-12-18T02:21:36;-4.70;99.90
43810;DHT22;29440;48.208;11.162;2022-12-18T02:24:29;-4.80;99.90
43810;DHT22;29440;48.208;11.162;2022-12-18T02:27:07;-4.80;99.90
43810;DHT22;29440;48.208;11.162;2022-12-18T02:29:48;-4.90;99.90
43810;DHT22;29440;48.208;11.162;2022-12-18T02:32:20;-4.90;99.90
43810;DHT22;29440;48.208;11.162;2022-12-18T02:34:49;-4.90;99.90
43810;DHT22;29440;48.208;11.162;2022-12-18T02:37:19;-5.00;99.90
43810;DHT22;29440;48.208;11.162;2022-12-18T02:39:47;-5.00;99.90
43810;DHT22;29440;48.208;11.162;2022-12-18T02:42:14;-4.90;99.90
43810;DHT22;29440;48.208;11.162;2022-12-18T02:44:44;-5.00;99.90
43810;DHT22;29440;48.208;11.162;2022-12-18T02:47:12;-4.90;99.90
43810;DHT22;29440;48.208;11.162;2022-12-18T02:49:48;-4.90;99.90
43810;DHT22;29440;48.208;11.162;2022-12-18T02:55:26;-4.90;99.90
43810;DHT22;29440;48.208;11.162;2022-12-18T02:58:06;-4.90;99.90
43810;DHT22;29440;48.208;11.162;2022-12-18T03:00:50;-4.90;99.90
43810;DHT22;29440;48.208;11.162;2022-12-18T03:03:27;-5.00;99.90
43810;DHT22;29440;48.208;11.162;2022-12-18T03:06:10;-4.80;99.90
43810;DHT22;29440;48.208;11.162;2022-12-18T03:08:40;-4.90;99.90
43810;DHT22;29440;48.208;11.162;2022-12-18T03:11:12;-4.90;99.90
43810;DHT22;29440;48.208;11.162;2022-12-18T03:13:54;-4.90;99.90
43810;DHT22;29440;48.208;11.162;2022-12-18T03:16:28;-4.90;99.90
43810;DHT22;29440;48.208;11.162;2022-12-18T03:19:08;-4.90;99.90
43810;DHT22;29440;48.208;11.162;2022-12-18T03:21:42;-4.80;99.90
43810;DHT22;29440;48.208;11.162;2022-12-18T03:24:10;-4.90;99.90
43810;DHT22;29440;48.208;11.162;2022-12-18T03:26:39;-4.80;99.90
43810;DHT22;29440;48.208;11.162;2022-12-18T03:29:14;-4.80;99.90
43810;DHT22;29440;48.208;11.162;2022-12-18T03:31:47;-4.90;99.90
43810;DHT22;29440;48.208;11.162;2022-12-18T03:34:21;-4.80;99.90
43810;DHT22;29440;48.208;11.162;2022-12-18T03:36:47;-4.80;99.90
43810;DHT22;29440;48.208;11.162;2022-12-18T03:39:13;-4.80;99.90
43810;DHT22;29440;48.208;11.162;2022-12-18T03:41:45;-4.80;99.90
43810;DHT22;29440;48.208;11.162;2022-12-18T03:44:32;-4.70;99.90
43810;DHT22;29440;48.208;11.162;2022-12-18T03:47:13;-4.70;99.90
43810;DHT22;29440;48.208;11.162;2022-12-18T03:52:38;-4.70;99.90
43810;DHT22;29440;48.208;11.162;2022-12-18T03:55:07;-4.70;99.90
43810;DHT22;29440;48.208;11.162;2022-12-18T03:57:33;-4.60;99.90
43810;DHT22;29440;48.208;11.162;2022-12-18T04:00:13;-4.60;99.90
43810;DHT22;29440;48.208;11.162;2022-12-18T04:02:48;-4.60;99.90
43810;DHT22;29440;48.208;11.162;2022-12-18T04:05:14;-4.60;99.90
43810;DHT22;29440;48.208;11.162;2022-12-18T04:07:41;-4.50;99.90
43810;DHT22;29440;48.208;11.162;2022-12-18T04:10:08;-4.50;99.90
43810;DHT22;29440;48.208;11.162;2022-12-18T04:12:37;-4.50;99.90
43810;DHT22;29440;48.208;11.162;2022-12-18T04:15:04;-4.40;99.90
43810;DHT22;29440;48.208;11.162;2022-12-18T04:17:30;-4.40;99.90
43810;DHT22;29440;48.208;11.162;2022-12-18T04:19:55;-4.40;99.90
43810;DHT22;29440;48.208;11.162;2022-12-18T04:22:21;-4.40;99.90
43810;DHT22;29440;48.208;11.162;2022-12-18T04:24:49;-4.40;99.90
43810;DHT22;29440;48.208;11.162;2022-12-18T04:27:14;-4.40;99.90
43810;DHT22;29440;48.208;11.162;2022-12-18T04:29:40;-4.40;99.90
43810;DHT22;29440;48.208;11.162;2022-12-18T04:32:06;-4.40;99.90
43810;DHT22;29440;48.208;11.162;2022-12-18T04:34:32;-4.40;99.90
43810;DHT22;29440;48.208;11.162;2022-12-18T04:36:57;-4.40;99.90
43810;DHT22;29440;48.208;11.162;2022-12-18T04:39:23;-4.50;99.90
43810;DHT22;29440;48.208;11.162;2022-12-18T04:41:48;-4.50;99.90
43810;DHT22;29440;48.208;11.162;2022-12-18T04:44:14;-4.50;99.90
43810;DHT22;29440;48.208;11.162;2022-12-18T04:46:40;-4.50;99.90
43810;DHT22;29440;48.208;11.162;2022-12-18T04:49:05;-4.50;99.90
43810;DHT22;29440;48.208;11.162;2022-12-18T04:51:31;-4.50;99.90
43810;DHT22;29440;48.208;11.162;2022-12-18T04:53:56;-4.60;99.90
43810;DHT22;29440;48.208;11.162;2022-12-18T04:56:22;-4.50;99.90
43810;DHT22;29440;48.208;11.162;2022-12-18T04:58:48;-4.60;99.90
43810;DHT22;29440;48.208;11.162;2022-12-18T05:01:16;-4.60;99.90
43810;DHT22;29440;48.208;11.162;2022-12-18T05:03:41;-4.50;99.90
43810;DHT22;29440;48.208;11.162;2022-12-18T05:06:07;-4.60;99.90
43810;DHT22;29440;48.208;11.162;2022-12-18T05:08:33;-4.60;99.90
43810;DHT22;29440;48.208;11.162;2022-12-18T05:11:11;-4.60;99.90
43810;DHT22;29440;48.208;11.162;2022-12-18T05:13:37;-4.60;99.90
43810;DHT22;29440;48.208;11.162;2022-12-18T05:16:04;-4.70;99.90
43810;DHT22;29440;48.208;11.162;2022-12-18T05:18:30;-4.60;99.90
43810;DHT22;29440;48.208;11.162;2022-12-18T05:20:56;-4.70;99.90
43810;DHT22;29440;48.208;11.162;2022-12-18T05:23:23;-4.70;99.90
43810;DHT22;29440;48.208;11.162;2022-12-18T05:25:56;-4.70;99.90
43810;DHT22;29440;48.208;11.162;2022-12-18T05:28:24;-4.70;99.90
43810;DHT22;29440;48.208;11.162;2022-12-18T05:30:51;-4.70;99.90
43810;DHT22;29440;48.208;11.162;2022-12-18T05:33:17;-4.70;99.90
43810;DHT22;29440;48.208;11.162;2022-12-18T05:35:43;-4.70;99.90
43810;DHT22;29440;48.208;11.162;2022-12-18T05:38:09;-4.60;99.90
43810;DHT22;29440;48.208;11.162;2022-12-18T05:40:35;-4.60;99.90
43810;DHT22;29440;48.208;11.162;2022-12-18T05:43:02;-4.60;99.90
43810;DHT22;29440;48.208;11.162;2022-12-18T05:45:27;-4.60;99.90
43810;DHT22;29440;48.208;11.162;2022-12-18T05:47:53;-4.70;99.90
43810;DHT22;29440;48.208;11.162;2022-12-18T05:50:18;-4.60;99.90
43810;DHT22;29440;48.208;11.162;2022-12-18T05:52:44;-4.60;99.90
43810;DHT22;29440;48.208;11.162;2022-12-18T05:55:09;-4.60;99.90
43810;DHT22;29440;48.208;11.162;2022-12-18T05:57:35;-4.60;99.90
43810;DHT22;29440;48.208;11.162;2022-12-18T06:00:01;-4.60;99.90
43810;DHT22;29440;48.208;11.162;2022-12-18T06:02:26;-4.60;99.90
43810;DHT22;29440;48.208;11.162;2022-12-18T06:04:52;-4.50;99.90
43810;DHT22;29440;48.208;11.162;2022-12-18T06:07:17;-4.60;99.90
43810;DHT22;29440;48.208;11.162;2022-12-18T06:09:43;-4.50;99.90
43810;DHT22;29440;48.208;11.162;2022-12-18T06:12:08;-4.60;99.90
43810;DHT22;29440;48.208;11.162;2022-12-18T06:14:34;-4.60;99.90
43810;DHT22;29440;48.208;11.162;2022-12-18T06:17:00;-4.60;99.90
43810;DHT22;29440;48.208;11.162;2022-12-18T06:19:25;-4.50;99.90
43810;DHT22;29440;48.208;11.162;2022-12-18T06:21:51;-4.50;99.90
43810;DHT22;29440;48.208;11.162;2022-12-18T06:24:16;-4.50;99.90
43810;DHT22;29440;48.208;11.162;2022-12-18T06:26:42;-4.50;99.90
43810;DHT22;29440;48.208;11.162;2022-12-18T06:29:08;-4.50;99.90
43810;DHT22;29440;48.208;11.162;2022-12-18T06:31:33;-4.50;99.90
43810;DHT22;29440;48.208;11.162;2022-12-18T06:34:01;-4.50;99.90
43810;DHT22;29440;48.208;11.162;2022-12-18T06:36:27;-4.50;99.90
43810;DHT22;29440;48.208;11.162;2022-12-18T06:38:52;-4.50;99.90
43810;DHT22;29440;48.208;11.162;2022-12-18T06:41:19;-4.40;99.90
43810;DHT22;29440;48.208;11.162;2022-12-18T06:43:45;-4.50;99.90
43810;DHT22;29440;48.208;11.162;2022-12-18T06:46:11;-4.50;99.90
43810;DHT22;29440;48.208;11.162;2022-12-18T06:48:37;-4.50;99.90
43810;DHT22;29440;48.208;11.162;2022-12-18T06:51:03;-4.50;99.90
43810;DHT22;29440;48.208;11.162;2022-12-18T06:53:29;-4.50;99.90
43810;DHT22;29440;48.208;11.162;2022-12-18T06:56:03;-4.50;99.90
43810;DHT22;29440;48.208;11.162;2022-12-18T06:58:28;-4.50;99.90
43810;DHT22;29440;48.208;11.162;2022-12-18T07:01:02;-4.40;99.90
43810;DHT22;29440;48.208;11.162;2022-12-18T07:03:28;-4.40;99.90
43810;DHT22;29440;48.208;11.162;2022-12-18T07:05:53;-4.40;99.90
43810;DHT22;29440;48.208;11.162;2022-12-18T07:08:19;-4.40;99.90
43810;DHT22;29440;48.208;11.162;2022-12-18T07:10:44;-4.40;99.90
43810;DHT22;29440;48.208;11.162;2022-12-18T07:13:10;-4.40;99.90
43810;DHT22;29440;48.208;11.162;2022-12-18T07:15:36;-4.40;99.90
43810;DHT22;29440;48.208;11.162;2022-12-18T07:18:02;-4.40;99.90
43810;DHT22;29440;48.208;11.162;2022-12-18T07:20:27;-4.40;99.90
43810;DHT22;29440;48.208;11.162;2022-12-18T07:22:53;-4.40;99.90
43810;DHT22;29440;48.208;11.162;2022-12-18T07:25:18;-4.40;99.90
43810;DHT22;29440;48.208;11.162;2022-12-18T07:27:44;-4.40;99.90
43810;DHT22;29440;48.208;11.162;2022-12-18T07:30:10;-4.40;99.90
43810;DHT22;29440;48.208;11.162;2022-12-18T07:32:36;-4.40;99.90
43810;DHT22;29440;48.208;11.162;2022-12-18T07:35:02;-4.40;99.90
43810;DHT22;29440;48.208;11.162;2022-12-18T07:37:28;-4.40;99.90
43810;DHT22;29440;48.208;11.162;2022-12-18T07:39:53;-4.40;99.90
43810;DHT22;29440;48.208;11.162;2022-12-18T07:42:19;-4.40;99.90
43810;DHT22;29440;48.208;11.162;2022-12-18T07:45:00;-4.40;99.90
43810;DHT22;29440;48.208;11.162;2022-12-18T07:47:27;-4.40;99.90
43810;DHT22;29440;48.208;11.162;2022-12-18T07:49:53;-4.40;99.90
43810;DHT22;29440;48.208;11.162;2022-12-18T07:52:18;-4.40;99.90
43810;DHT22;29440;48.208;11.162;2022-12-18T07:54:44;-4.40;99.90
43810;DHT22;29440;48.208;11.162;2022-12-18T07:57:10;-4.30;99.90
43810;DHT22;29440;48.208;11.162;2022-12-18T07:59:35;-4.30;99.90
43810;DHT22;29440;48.208;11.162;2022-12-18T08:02:01;-4.30;99.90
43810;DHT22;29440;48.208;11.162;2022-12-18T08:04:27;-4.30;99.90
43810;DHT22;29440;48.208;11.162;2022-12-18T08:06:52;-4.30;99.90
43810;DHT22;29440;48.208;11.162;2022-12-18T08:09:18;-4.20;99.90
43810;DHT22;29440;48.208;11.162;2022-12-18T08:11:50;-4.20;99.90
43810;DHT22;29440;48.208;11.162;2022-12-18T08:14:32;-4.20;99.90
43810;DHT22;29440;48.208;11.162;2022-12-18T08:16:58;-4.20;99.90
43810;DHT22;29440;48.208;11.162;2022-12-18T08:19:24;-4.20;99.90
43810;DHT22;29440;48.208;11.162;2022-12-18T08:21:49;-4.20;99.90
43810;DHT22;29440;48.208;11.162;2022-12-18T08:24:15;-4.10;99.90
43810;DHT22;29440;48.208;11.162;2022-12-18T08:26:40;-4.10;99.90
43810;DHT22;29440;48.208;11.162;2022-12-18T08:29:06;-4.10;99.90
43810;DHT22;29440;48.208;11.162;2022-12-18T08:31:31;-4.10;99.90
43810;DHT22;29440;48.208;11.162;2022-12-18T08:33:58;-4.10;99.90
43810;DHT22;29440;48.208;11.162;2022-12-18T08:36:24;-4.10;99.90
43810;DHT22;29440;48.208;11.162;2022-12-18T08:38:50;-4.20;99.90
43810;DHT22;29440;48.208;11.162;2022-12-18T08:41:24;-4.20;99.90
43810;DHT22;29440;48.208;11.162;2022-12-18T08:43:49;-4.20;99.90
43810;DHT22;29440;48.208;11.162;2022-12-18T08:46:36;-4.20;99.90
43810;DHT22;29440;48.208;11.162;2022-12-18T08:49:03;-4.10;99.90
43810;DHT22;29440;48.208;11.162;2022-12-18T08:51:28;-4.10;99.90
43810;DHT22;29440;48.208;11.162;2022-12-18T08:53:54;-4.10;99.90
43810;DHT22;29440;48.208;11.162;2022-12-18T08:56:20;-4.10;99.90
43810;DHT22;29440;48.208;11.162;2022-12-18T08:58:45;-4.10;99.90
43810;DHT22;29440;48.208;11.162;2022-12-18T09:01:12;-4.00;99.90
43810;DHT22;29440;48.208;11.162;2022-12-18T09:03:38;-4.00;99.90
43810;DHT22;29440;48.208;11.162;2022-12-18T09:06:04;-3.90;99.90
43810;DHT22;29440;48.208;11.162;2022-12-18T09:08:30;-3.90;99.90
43810;DHT22;29440;48.208;11.162;2022-12-18T09:11:20;-3.90;99.90
43810;DHT22;29440;48.208;11.162;2022-12-18T09:13:56;-3.90;99.90
43810;DHT22;29440;48.208;11.162;2022-12-18T09:16:27;-3.80;99.90
43810;DHT22;29440;48.208;11.162;2022-12-18T09:19:03;-3.80;99.90
43810;DHT22;29440;48.208;11.162;2022-12-18T09:21:31;-3.80;99.90
43810;DHT22;29440;48.208;11.162;2022-12-18T09:23:58;-3.80;99.90
43810;DHT22;29440;48.208;11.162;2022-12-18T09:26:25;-3.80;99.90
43810;DHT22;29440;48.208;11.162;2022-12-18T09:28:51;-3.80;99.90
43810;DHT22;29440;48.208;11.162;2022-12-18T09:31:19;-3.80;99.90
43810;DHT22;29440;48.208;11.162;2022-12-18T09:33:44;-3.80;99.90
43810;DHT22;29440;48.208;11.162;2022-12-18T09:36:13;-3.80;99.90
43810;DHT22;29440;48.208;11.162;2022-12-18T09:38:39;-3.70;99.90
43810;DHT22;29440;48.208;11.162;2022-12-18T09:41:28;-3.80;99.90
43810;DHT22;29440;48.208;11.162;2022-12-18T09:44:01;-3.80;99.90
43810;DHT22;29440;48.208;11.162;2022-12-18T09:46:36;-3.70;99.90
43810;DHT22;29440;48.208;11.162;2022-12-18T09:49:06;-3.70;99.90
43810;DHT22;29440;48.208;11.162;2022-12-18T09:51:49;-3.60;99.90
43810;DHT22;29440;48.208;11.162;2022-12-18T09:54:23;-3.60;99.90
43810;DHT22;29440;48.208;11.162;2022-12-18T09:56:50;-3.60;99.90
43810;DHT22;29440;48.208;11.162;2022-12-18T09:59:47;-3.60;99.90
43810;DHT22;29440;48.208;11.162;2022-12-18T10:02:21;-3.60;99.90
43810;DHT22;29440;48.208;11.162;2022-12-18T10:04:58;-3.60;99.90
43810;DHT22;29440;48.208;11.162;2022-12-18T10:07:49;-3.50;99.90
43810;DHT22;29440;48.208;11.162;2022-12-18T10:13:15;-3.40;99.90
43810;DHT22;29440;48.208;11.162;2022-12-18T10:16:06;-3.40;99.90
43810;DHT22;29440;48.208;11.162;2022-12-18T10:21:42;-3.30;99.90
43810;DHT22;29440;48.208;11.162;2022-12-18T10:26:47;-3.30;99.90
43810;DHT22;29440;48.208;11.162;2022-12-18T10:29:15;-3.30;99.90
43810;DHT22;29440;48.208;11.162;2022-12-18T10:31:42;-3.20;99.90
43810;DHT22;29440;48.208;11.162;2022-12-18T10:34:11;-3.20;99.90
43810;DHT22;29440;48.208;11.162;2022-12-18T10:36:38;-3.20;99.90
43810;DHT22;29440;48.208;11.162;2022-12-18T10:39:20;-3.10;99.90
43810;DHT22;29440;48.208;11.162;2022-12-18T10:41:47;-3.10;99.90
43810;DHT22;29440;48.208;11.162;2022-12-18T10:44:20;-3.10;99.90
43810;DHT22;29440;48.208;11.162;2022-12-18T10:46:54;-3.00;99.90
43810;DHT22;29440;48.208;11.162;2022-12-18T10:49:29;-3.00;99.90
43810;DHT22;29440;48.208;11.162;2022-12-18T10:52:18;-2.90;99.90
43810;DHT22;29440;48.208;11.162;2022-12-18T10:54:59;-3.00;99.90
43810;DHT22;29440;48.208;11.162;2022-12-18T10:57:38;-2.90;99.90
43810;DHT22;29440;48.208;11.162;2022-12-18T11:00:28;-2.90;99.90
43810;DHT22;29440;48.208;11.162;2022-12-18T11:02:56;-2.80;99.90
43810;DHT22;29440;48.208;11.162;2022-12-18T11:05:33;-2.70;99.90
43810;DHT22;29440;48.208;11.162;2022-12-18T11:08:00;-2.70;99.90
43810;DHT22;29440;48.208;11.162;2022-12-18T11:10:32;-2.70;99.90
43810;DHT22;29440;48.208;11.162;2022-12-18T11:13:22;-2.70;99.90
43810;DHT22;29440;48.208;11.162;2022-12-18T11:15:49;-2.70;99.90
43810;DHT22;29440;48.208;11.162;2022-12-18T11:21:10;-2.70;99.90
43810;DHT22;29440;48.208;11.162;2022-12-18T11:23:51;-2.80;99.90
43810;DHT22;29440;48.208;11.162;2022-12-18T11:26:18;-2.80;99.90
43810;DHT22;29440;48.208;11.162;2022-12-18T11:28:52;-2.80;99.90
43810;DHT22;29440;48.208;11.162;2022-12-18T11:31:33;-2.80;99.90
43810;DHT22;29440;48.208;11.162;2022-12-18T11:34:30;-2.90;99.90
43810;DHT22;29440;48.208;11.162;2022-12-18T11:36:58;-2.90;99.90
43810;DHT22;29440;48.208;11.162;2022-12-18T11:39:39;-2.80;99.90
43810;DHT22;29440;48.208;11.162;2022-12-18T11:42:18;-2.80;99.90
43810;DHT22;29440;48.208;11.162;2022-12-18T11:44:55;-2.80;99.90
43810;DHT22;29440;48.208;11.162;2022-12-18T11:47:29;-2.80;99.90
43810;DHT22;29440;48.208;11.162;2022-12-18T11:50:00;-2.80;99.90
43810;DHT22;29440;48.208;11.162;2022-12-18T11:52:33;-2.90;99.90
43810;DHT22;29440;48.208;11.162;2022-12-18T11:55:15;-2.80;99.90
43810;DHT22;29440;48.208;11.162;2022-12-18T11:58:04;-2.80;99.90
43810;DHT22;29440;48.208;11.162;2022-12-18T12:00:36;-2.80;99.90
43810;DHT22;29440;48.208;11.162;2022-12-18T12:03:27;-2.70;99.90
43810;DHT22;29440;48.208;11.162;2022-12-18T12:09:03;-2.70;99.90
43810;DHT22;29440;48.208;11.162;2022-12-18T12:11:53;-2.80;99.90
43810;DHT22;29440;48.208;11.162;2022-12-18T12:23:05;-2.60;99.90
43810;DHT22;29440;48.208;11.162;2022-12-18T12:25:46;-2.60;99.90
43810;DHT22;29440;48.208;11.162;2022-12-18T12:28:46;-2.70;99.90
43810;DHT22;29440;48.208;11.162;2022-12-18T12:31:37;-2.60;99.90
43810;DHT22;29440;48.208;11.162;2022-12-18T12:39:30;-2.50;99.90
43810;DHT22;29440;48.208;11.162;2022-12-18T12:41:57;-2.70;99.90
43810;DHT22;29440;48.208;11.162;2022-12-18T12:44:46;-2.70;99.90
43810;DHT22;29440;48.208;11.162;2022-12-18T12:47:29;-2.70;99.90
43810;DHT22;29440;48.208;11.162;2022-12-18T12:49:58;-2.70;99.90
43810;DHT22;29440;48.208;11.162;2022-12-18T12:52:33;-2.80;99.90
43810;DHT22;29440;48.208;11.162;2022-12-18T12:55:02;-2.80;99.90
43810;DHT22;29440;48.208;11.162;2022-12-18T13:00:54;-2.80;99.90
43810;DHT22;29440;48.208;11.162;2022-12-18T13:08:59;-2.90;99.90
43810;DHT22;29440;48.208;11.162;2022-12-18T13:11:32;-3.00;99.90
43810;DHT22;29440;48.208;11.162;2022-12-18T13:14:31;-2.90;99.90
43810;DHT22;29440;48.208;11.162;2022-12-18T13:19:52;-3.10;99.90
43810;DHT22;29440;48.208;11.162;2022-12-18T13:25:20;-3.20;99.90
43810;DHT22;29440;48.208;11.162;2022-12-18T13:28:08;-3.20;99.90
43810;DHT22;29440;48.208;11.162;2022-12-18T13:38:32;-3.40;99.90
43810;DHT22;29440;48.208;11.162;2022-12-18T13:41:02;-3.40;99.90
43810;DHT22;29440;48.208;11.162;2022-12-18T13:43:32;-3.50;99.90
43810;DHT22;29440;48.208;11.162;2022-12-18T13:46:17;-3.50;99.90
43810;DHT22;29440;48.208;11.162;2022-12-18T13:48:51;-3.50;99.90
43810;DHT22;29440;48.208;11.162;2022-12-18T13:51:19;-3.60;99.90
43810;DHT22;29440;48.208;11.162;2022-12-18T13:56:25;-3.50;99.90
43810;DHT22;29440;48.208;11.162;2022-12-18T13:59:21;-3.60;99.90
43810;DHT22;29440;48.208;11.162;2022-12-18T14:02:00;-3.60;99.90
43810;DHT22;29440;48.208;11.162;2022-12-18T14:04:31;-3.70;99.90
43810;DHT22;29440;48.208;11.162;2022-12-18T14:07:28;-3.60;99.90
43810;DHT22;29440;48.208;11.162;2022-12-18T14:09:55;-3.60;99.90
43810;DHT22;29440;48.208;11.162;2022-12-18T14:15:26;-3.70;99.90
43810;DHT22;29440;48.208;11.162;2022-12-18T14:18:28;-3.70;99.90
43810;DHT22;29440;48.208;11.162;2022-12-18T14:20:59;-3.80;99.90
43810;DHT22;29440;48.208;11.162;2022-12-18T14:23:35;-3.70;99.90
43810;DHT22;29440;48.208;11.162;2022-12-18T14:26:03;-3.80;99.90
43810;DHT22;29440;48.208;11.162;2022-12-18T14:28:45;-3.80;99.90
43810;DHT22;29440;48.208;11.162;2022-12-18T14:31:22;-3.90;99.90
43810;DHT22;29440;48.208;11.162;2022-12-18T14:33:50;-3.80;99.90
43810;DHT22;29440;48.208;11.162;2022-12-18T14:36:22;-3.80;99.90
43810;DHT22;29440;48.208;11.162;2022-12-18T14:38:50;-3.80;99.90
43810;DHT22;29440;48.208;11.162;2022-12-18T14:41:19;-3.80;99.90
43810;DHT22;29440;48.208;11.162;2022-12-18T14:43:47;-3.90;99.90
43810;DHT22;29440;48.208;11.162;2022-12-18T14:48:54;-3.80;99.90
43810;DHT22;29440;48.208;11.162;2022-12-18T14:51:22;-3.90;99.90
43810;DHT22;29440;48.208;11.162;2022-12-18T14:53:57;-3.80;99.90
43810;DHT22;29440;48.208;11.162;2022-12-18T14:56:26;-4.00;99.90
43810;DHT22;29440;48.208;11.162;2022-12-18T15:01:45;-4.00;99.90
43810;DHT22;29440;48.208;11.162;2022-12-18T15:07:16;-3.90;99.90
43810;DHT22;29440;48.208;11.162;2022-12-18T15:10:31;-4.00;99.90
43810;DHT22;29440;48.208;11.162;2022-12-18T15:18:11;-4.10;99.90
43810;DHT22;29440;48.208;11.162;2022-12-18T15:20:42;-4.20;99.90
43810;DHT22;29440;48.208;11.162;2022-12-18T15:25:44;-4.20;99.90
43810;DHT22;29440;48.208;11.162;2022-12-18T15:31:06;-4.10;99.90
43810;DHT22;29440;48.208;11.162;2022-12-18T15:36:33;-4.20;99.90
43810;DHT22;29440;48.208;11.162;2022-12-18T15:39:02;-4.20;99.90
43810;DHT22;29440;48.208;11.162;2022-12-18T15:41:27;-4.20;99.90
43810;DHT22;29440;48.208;11.162;2022-12-18T15:43:53;-4.20;99.90
43810;DHT22;29440;48.208;11.162;2022-12-18T15:46:21;-4.20;99.90
43810;DHT22;29440;48.208;11.162;2022-12-18T15:48:49;-4.20;99.90
43810;DHT22;29440;48.208;11.162;2022-12-18T15:51:16;-4.20;99.90
43810;DHT22;29440;48.208;11.162;2022-12-18T15:53:43;-4.20;99.90
43810;DHT22;29440;48.208;11.162;2022-12-18T15:56:12;-4.20;99.90
43810;DHT22;29440;48.208;11.162;2022-12-18T15:58:57;-4.20;99.90
43810;DHT22;29440;48.208;11.162;2022-12-18T16:01:26;-4.20;99.90
43810;DHT22;29440;48.208;11.162;2022-12-18T16:03:52;-4.20;99.90
43810;DHT22;29440;48.208;11.162;2022-12-18T16:06:18;-4.20;99.90
43810;DHT22;29440;48.208;11.162;2022-12-18T16:08:44;-4.30;99.90
43810;DHT22;29440;48.208;11.162;2022-12-18T16:14:12;-4.20;99.90
43810;DHT22;29440;48.208;11.162;2022-12-18T16:16:40;-4.30;99.90
43810;DHT22;29440;48.208;11.162;2022-12-18T16:19:07;-4.30;99.90
43810;DHT22;29440;48.208;11.162;2022-12-18T16:21:32;-4.30;99.90
43810;DHT22;29440;48.208;11.162;2022-12-18T16:23:58;-4.30;99.90
43810;DHT22;29440;48.208;11.162;2022-12-18T16:26:24;-4.30;99.90
43810;DHT22;29440;48.208;11.162;2022-12-18T16:28:49;-4.40;99.90
43810;DHT22;29440;48.208;11.162;2022-12-18T16:31:15;-4.40;99.90
43810;DHT22;29440;48.208;11.162;2022-12-18T16:33:40;-4.40;99.90
43810;DHT22;29440;48.208;11.162;2022-12-18T16:36:06;-4.40;99.90
43810;DHT22;29440;48.208;11.162;2022-12-18T16:38:33;-4.40;99.90
43810;DHT22;29440;48.208;11.162;2022-12-18T16:40:58;-4.40;99.90
43810;DHT22;29440;48.208;11.162;2022-12-18T16:43:42;-4.40;99.90
43810;DHT22;29440;48.208;11.162;2022-12-18T16:46:08;-4.40;99.90
43810;DHT22;29440;48.208;11.162;2022-12-18T16:48:33;-4.40;99.90
43810;DHT22;29440;48.208;11.162;2022-12-18T16:51:01;-4.40;99.90
43810;DHT22;29440;48.208;11.162;2022-12-18T16:53:27;-4.40;99.90
43810;DHT22;29440;48.208;11.162;2022-12-18T16:55:56;-4.40;99.90
43810;DHT22;29440;48.208;11.162;2022-12-18T16:58:22;-4.40;99.90
43810;DHT22;29440;48.208;11.162;2022-12-18T17:00:47;-4.50;99.90
43810;DHT22;29440;48.208;11.162;2022-12-18T17:03:13;-4.40;99.90
43810;DHT22;29440;48.208;11.162;2022-12-18T17:05:38;-4.40;99.90
43810;DHT22;29440;48.208;11.162;2022-12-18T17:08:04;-4.40;99.90
43810;DHT22;29440;48.208;11.162;2022-12-18T17:10:30;-4.40;99.90
43810;DHT22;29440;48.208;11.162;2022-12-18T17:12:56;-4.50;99.90
43810;DHT22;29440;48.208;11.162;2022-12-18T17:15:22;-4.50;99.90